sensor_id;sensor_type;location;lat;lon;timestamp;P1;durP1;ratioP1;P2;durP2;ratioP2
19940;SDS011;10132;50.864;5.176;2023-07-08T00:01:30;5.60;;;4.28;;
19940;SDS011;10132;50.864;5.176;2023-07-08T00:03:31;6.82;;;4.53;;
19940;SDS011;10132;50.864;5.176;2023-07-08T00:05:33;6.10;;;4.35;;
19940;SDS011;10132;50.864;5.176;2023-07-08T00:07:37;5.03;;;4.50;;
19940;SDS011;10132;50.864;5.176;2023-07-08T00:09:39;6.80;;;4.10;;
19940;SDS011;10132;50.864;5.176;2023-07-08T00:11:41;7.35;;;4.50;;
19940;SDS011;10132;50.864;5.176;2023-07-08T00:13:43;7.30;;;4.03;;
19940;SDS011;10132;50.864;5.176;2023-07-08T00:15:45;5.15;;;4.22;;
19940;SDS011;10132;50.864;5.176;2023-07-08T00:17:47;5.32;;;3.88;;
19940;SDS011;10132;50.864;5.176;2023-07-08T00:19:49;6.30;;;4.47;;
19940;SDS011;10132;50.864;5.176;2023-07-08T00:21:54;6.22;;;4.32;;
19940;SDS011;10132;50.864;5.176;2023-07-08T00:23:57;5.28;;;3.90;;
19940;SDS011;10132;50.864;5.176;2023-07-08T00:25:59;6.30;;;4.30;;
19940;SDS011;10132;50.864;5.176;2023-07-08T00:28:01;5.93;;;4.13;;
19940;SDS011;10132;50.864;5.176;2023-07-08T00:32:21;6.70;;;4.20;;
19940;SDS011;10132;50.864;5.176;2023-07-08T00:34:23;5.82;;;4.18;;
19940;SDS011;10132;50.864;5.176;2023-07-08T00:36:26;10.10;;;4.32;;
19940;SDS011;10132;50.864;5.176;2023-07-08T00:38:28;7.88;;;4.63;;
19940;SDS011;10132;50.864;5.176;2023-07-08T00:40:32;5.72;;;3.92;;
19940;SDS011;10132;50.864;5.176;2023-07-08T00:42:34;7.53;;;4.13;;
19940;SDS011;10132;50.864;5.176;2023-07-08T00:44:35;6.15;;;4.22;;
19940;SDS011;10132;50.864;5.176;2023-07-08T00:46:42;5.53;;;3.88;;
19940;SDS011;10132;50.864;5.176;2023-07-08T00:48:52;5.97;;;4.30;;
19940;SDS011;10132;50.864;5.176;2023-07-08T00:50:57;7.60;;;4.35;;
19940;SDS011;10132;50.864;5.176;2023-07-08T00:55:22;7.50;;;4.28;;
19940;SDS011;10132;50.864;5.176;2023-07-08T00:57:26;4.95;;;4.40;;
19940;SDS011;10132;50.864;5.176;2023-07-08T00:59:33;5.63;;;4.15;;
19940;SDS011;10132;50.864;5.176;2023-07-08T01:01:40;5.68;;;4.32;;
19940;SDS011;10132;50.864;5.176;2023-07-08T01:03:45;5.93;;;4.18;;
19940;SDS011;10132;50.864;5.176;2023-07-08T01:05:50;6.78;;;4.28;;
19940;SDS011;10132;50.864;5.176;2023-07-08T01:07:57;5.35;;;4.32;;
19940;SDS011;10132;50.864;5.176;2023-07-08T01:10:03;5.63;;;3.97;;
19940;SDS011;10132;50.864;5.176;2023-07-08T01:12:13;4.60;;;4.00;;
19940;SDS011;10132;50.864;5.176;2023-07-08T01:14:19;5.82;;;4.30;;
19940;SDS011;10132;50.864;5.176;2023-07-08T01:16:22;8.35;;;4.53;;
19940;SDS011;10132;50.864;5.176;2023-07-08T01:18:25;6.80;;;4.68;;
19940;SDS011;10132;50.864;5.176;2023-07-08T01:20:28;6.72;;;4.70;;
19940;SDS011;10132;50.864;5.176;2023-07-08T01:22:31;5.55;;;4.30;;
19940;SDS011;10132;50.864;5.176;2023-07-08T01:24:35;4.70;;;4.30;;
19940;SDS011;10132;50.864;5.176;2023-07-08T01:26:40;6.43;;;4.10;;
19940;SDS011;10132;50.864;5.176;2023-07-08T01:28:45;5.53;;;3.92;;
19940;SDS011;10132;50.864;5.176;2023-07-08T01:30:47;8.48;;;4.60;;
19940;SDS011;10132;50.864;5.176;2023-07-08T01:32:50;7.97;;;4.30;;
19940;SDS011;10132;50.864;5.176;2023-07-08T01:35:00;6.03;;;4.45;;
19940;SDS011;10132;50.864;5.176;2023-07-08T01:37:03;5.85;;;4.88;;
19940;SDS011;10132;50.864;5.176;2023-07-08T01:39:10;6.50;;;4.75;;
19940;SDS011;10132;50.864;5.176;2023-07-08T01:41:14;6.07;;;4.72;;
19940;SDS011;10132;50.864;5.176;2023-07-08T01:43:17;6.07;;;5.05;;
19940;SDS011;10132;50.864;5.176;2023-07-08T01:45:20;5.68;;;4.40;;
19940;SDS011;10132;50.864;5.176;2023-07-08T01:47:24;6.72;;;4.65;;
19940;SDS011;10132;50.864;5.176;2023-07-08T01:49:26;6.40;;;4.60;;
19940;SDS011;10132;50.864;5.176;2023-07-08T01:51:28;7.68;;;4.72;;
19940;SDS011;10132;50.864;5.176;2023-07-08T01:53:31;7.65;;;4.60;;
19940;SDS011;10132;50.864;5.176;2023-07-08T01:55:36;7.43;;;4.88;;
19940;SDS011;10132;50.864;5.176;2023-07-08T01:57:38;5.93;;;4.03;;
19940;SDS011;10132;50.864;5.176;2023-07-08T01:59:40;6.10;;;4.30;;
19940;SDS011;10132;50.864;5.176;2023-07-08T02:01:42;8.65;;;4.30;;
19940;SDS011;10132;50.864;5.176;2023-07-08T02:03:44;6.22;;;4.82;;
19940;SDS011;10132;50.864;5.176;2023-07-08T02:05:46;6.50;;;4.55;;
19940;SDS011;10132;50.864;5.176;2023-07-08T02:07:49;6.50;;;4.70;;
19940;SDS011;10132;50.864;5.176;2023-07-08T02:09:51;6.35;;;4.68;;
19940;SDS011;10132;50.864;5.176;2023-07-08T02:11:54;7.90;;;4.90;;
19940;SDS011;10132;50.864;5.176;2023-07-08T02:13:56;7.18;;;4.65;;
19940;SDS011;10132;50.864;5.176;2023-07-08T02:16:00;5.45;;;4.57;;
19940;SDS011;10132;50.864;5.176;2023-07-08T02:18:02;12.23;;;5.22;;
19940;SDS011;10132;50.864;5.176;2023-07-08T02:20:05;6.87;;;4.80;;
19940;SDS011;10132;50.864;5.176;2023-07-08T02:22:08;5.97;;;4.78;;
19940;SDS011;10132;50.864;5.176;2023-07-08T02:24:10;6.78;;;4.68;;
19940;SDS011;10132;50.864;5.176;2023-07-08T02:26:12;6.07;;;4.90;;
19940;SDS011;10132;50.864;5.176;2023-07-08T02:28:16;7.45;;;4.10;;
19940;SDS011;10132;50.864;5.176;2023-07-08T02:30:18;7.05;;;5.00;;
19940;SDS011;10132;50.864;5.176;2023-07-08T02:32:20;5.95;;;5.25;;
19940;SDS011;10132;50.864;5.176;2023-07-08T02:34:22;6.60;;;5.25;;
19940;SDS011;10132;50.864;5.176;2023-07-08T02:36:24;7.75;;;5.00;;
19940;SDS011;10132;50.864;5.176;2023-07-08T02:38:25;7.25;;;5.05;;
19940;SDS011;10132;50.864;5.176;2023-07-08T02:40:27;7.85;;;4.82;;
19940;SDS011;10132;50.864;5.176;2023-07-08T02:42:29;9.13;;;4.60;;
19940;SDS011;10132;50.864;5.176;2023-07-08T02:44:32;6.55;;;5.60;;
19940;SDS011;10132;50.864;5.176;2023-07-08T02:46:34;7.47;;;5.10;;
19940;SDS011;10132;50.864;5.176;2023-07-08T02:48:36;5.93;;;5.05;;
19940;SDS011;10132;50.864;5.176;2023-07-08T02:50:38;6.73;;;4.47;;
19940;SDS011;10132;50.864;5.176;2023-07-08T02:52:40;6.70;;;4.68;;
19940;SDS011;10132;50.864;5.176;2023-07-08T02:54:42;7.03;;;4.57;;
19940;SDS011;10132;50.864;5.176;2023-07-08T02:56:44;9.33;;;4.90;;
19940;SDS011;10132;50.864;5.176;2023-07-08T02:58:46;6.90;;;5.00;;
19940;SDS011;10132;50.864;5.176;2023-07-08T03:00:52;8.10;;;5.80;;
19940;SDS011;10132;50.864;5.176;2023-07-08T03:02:54;10.02;;;4.97;;
19940;SDS011;10132;50.864;5.176;2023-07-08T03:04:56;5.95;;;5.10;;
19940;SDS011;10132;50.864;5.176;2023-07-08T03:06:59;6.70;;;4.65;;
19940;SDS011;10132;50.864;5.176;2023-07-08T03:09:01;7.03;;;5.80;;
19940;SDS011;10132;50.864;5.176;2023-07-08T03:11:04;10.48;;;5.78;;
19940;SDS011;10132;50.864;5.176;2023-07-08T03:13:07;6.53;;;5.05;;
19940;SDS011;10132;50.864;5.176;2023-07-08T03:15:09;5.45;;;4.82;;
19940;SDS011;10132;50.864;5.176;2023-07-08T03:17:13;8.77;;;5.00;;
19940;SDS011;10132;50.864;5.176;2023-07-08T03:19:14;9.10;;;5.15;;
19940;SDS011;10132;50.864;5.176;2023-07-08T03:21:17;7.27;;;5.37;;
19940;SDS011;10132;50.864;5.176;2023-07-08T03:23:19;11.52;;;5.82;;
19940;SDS011;10132;50.864;5.176;2023-07-08T03:25:21;9.00;;;5.43;;
19940;SDS011;10132;50.864;5.176;2023-07-08T03:27:24;10.00;;;5.32;;
19940;SDS011;10132;50.864;5.176;2023-07-08T03:29:26;10.30;;;5.65;;
19940;SDS011;10132;50.864;5.176;2023-07-08T03:31:28;8.23;;;5.13;;
19940;SDS011;10132;50.864;5.176;2023-07-08T03:33:32;7.30;;;5.30;;
19940;SDS011;10132;50.864;5.176;2023-07-08T03:35:34;6.90;;;5.53;;
19940;SDS011;10132;50.864;5.176;2023-07-08T03:37:36;6.93;;;4.95;;
19940;SDS011;10132;50.864;5.176;2023-07-08T03:39:38;5.45;;;4.80;;
19940;SDS011;10132;50.864;5.176;2023-07-08T03:41:40;8.27;;;5.53;;
19940;SDS011;10132;50.864;5.176;2023-07-08T03:43:41;5.33;;;4.70;;
19940;SDS011;10132;50.864;5.176;2023-07-08T03:45:43;6.40;;;5.10;;
19940;SDS011;10132;50.864;5.176;2023-07-08T03:47:45;6.75;;;4.95;;
19940;SDS011;10132;50.864;5.176;2023-07-08T03:49:48;6.82;;;5.00;;
19940;SDS011;10132;50.864;5.176;2023-07-08T03:51:50;8.93;;;5.20;;
19940;SDS011;10132;50.864;5.176;2023-07-08T03:53:54;7.28;;;5.40;;
19940;SDS011;10132;50.864;5.176;2023-07-08T03:55:56;6.37;;;5.40;;
19940;SDS011;10132;50.864;5.176;2023-07-08T03:57:58;8.43;;;5.77;;
19940;SDS011;10132;50.864;5.176;2023-07-08T04:00:00;7.73;;;5.30;;
19940;SDS011;10132;50.864;5.176;2023-07-08T04:02:01;9.77;;;5.37;;
19940;SDS011;10132;50.864;5.176;2023-07-08T04:04:03;6.05;;;5.38;;
19940;SDS011;10132;50.864;5.176;2023-07-08T04:06:06;7.70;;;5.67;;
19940;SDS011;10132;50.864;5.176;2023-07-08T04:08:08;7.87;;;5.90;;
19940;SDS011;10132;50.864;5.176;2023-07-08T04:10:10;6.53;;;5.70;;
19940;SDS011;10132;50.864;5.176;2023-07-08T04:12:14;6.33;;;5.53;;
19940;SDS011;10132;50.864;5.176;2023-07-08T04:14:16;8.83;;;6.07;;
19940;SDS011;10132;50.864;5.176;2023-07-08T04:16:18;7.00;;;5.40;;
19940;SDS011;10132;50.864;5.176;2023-07-08T04:18:23;5.93;;;4.83;;
19940;SDS011;10132;50.864;5.176;2023-07-08T04:20:25;6.53;;;5.10;;
19940;SDS011;10132;50.864;5.176;2023-07-08T04:22:28;9.20;;;5.40;;
19940;SDS011;10132;50.864;5.176;2023-07-08T04:24:30;7.33;;;5.63;;
19940;SDS011;10132;50.864;5.176;2023-07-08T04:26:32;8.53;;;6.00;;
19940;SDS011;10132;50.864;5.176;2023-07-08T04:28:35;6.70;;;5.68;;
19940;SDS011;10132;50.864;5.176;2023-07-08T04:30:37;10.47;;;6.30;;
19940;SDS011;10132;50.864;5.176;2023-07-08T04:32:41;6.73;;;5.83;;
19940;SDS011;10132;50.864;5.176;2023-07-08T04:34:43;7.28;;;5.45;;
19940;SDS011;10132;50.864;5.176;2023-07-08T04:36:45;7.90;;;5.30;;
19940;SDS011;10132;50.864;5.176;2023-07-08T04:38:48;7.57;;;5.30;;
19940;SDS011;10132;50.864;5.176;2023-07-08T04:40:51;7.20;;;5.25;;
19940;SDS011;10132;50.864;5.176;2023-07-08T04:42:54;7.00;;;5.00;;
19940;SDS011;10132;50.864;5.176;2023-07-08T04:44:55;7.60;;;5.60;;
19940;SDS011;10132;50.864;5.176;2023-07-08T04:46:57;7.72;;;5.82;;
19940;SDS011;10132;50.864;5.176;2023-07-08T04:49:00;8.05;;;5.65;;
19940;SDS011;10132;50.864;5.176;2023-07-08T04:51:03;9.65;;;6.28;;
19940;SDS011;10132;50.864;5.176;2023-07-08T04:53:05;8.50;;;5.30;;
19940;SDS011;10132;50.864;5.176;2023-07-08T04:55:08;7.15;;;5.45;;
19940;SDS011;10132;50.864;5.176;2023-07-08T04:57:10;6.78;;;5.40;;
19940;SDS011;10132;50.864;5.176;2023-07-08T04:59:13;7.30;;;6.07;;
19940;SDS011;10132;50.864;5.176;2023-07-08T05:01:16;11.20;;;6.65;;
19940;SDS011;10132;50.864;5.176;2023-07-08T05:03:18;6.10;;;5.40;;
19940;SDS011;10132;50.864;5.176;2023-07-08T05:05:20;10.60;;;6.53;;
19940;SDS011;10132;50.864;5.176;2023-07-08T05:07:22;6.93;;;5.65;;
19940;SDS011;10132;50.864;5.176;2023-07-08T05:09:24;7.25;;;5.53;;
19940;SDS011;10132;50.864;5.176;2023-07-08T05:11:28;8.95;;;6.38;;
19940;SDS011;10132;50.864;5.176;2023-07-08T05:13:29;6.30;;;5.70;;
19940;SDS011;10132;50.864;5.176;2023-07-08T05:15:31;8.02;;;6.15;;
19940;SDS011;10132;50.864;5.176;2023-07-08T05:17:33;8.65;;;5.88;;
19940;SDS011;10132;50.864;5.176;2023-07-08T05:19:36;7.70;;;5.68;;
19940;SDS011;10132;50.864;5.176;2023-07-08T05:21:38;6.53;;;5.70;;
19940;SDS011;10132;50.864;5.176;2023-07-08T05:23:40;6.50;;;5.80;;
19940;SDS011;10132;50.864;5.176;2023-07-08T05:25:44;7.88;;;6.05;;
19940;SDS011;10132;50.864;5.176;2023-07-08T05:27:47;8.52;;;6.15;;
19940;SDS011;10132;50.864;5.176;2023-07-08T05:29:50;8.98;;;6.65;;
19940;SDS011;10132;50.864;5.176;2023-07-08T05:31:52;7.80;;;5.70;;
19940;SDS011;10132;50.864;5.176;2023-07-08T05:33:54;7.88;;;6.38;;
19940;SDS011;10132;50.864;5.176;2023-07-08T05:35:55;7.72;;;5.95;;
19940;SDS011;10132;50.864;5.176;2023-07-08T05:37:58;7.88;;;6.20;;
19940;SDS011;10132;50.864;5.176;2023-07-08T05:40:00;7.28;;;6.05;;
19940;SDS011;10132;50.864;5.176;2023-07-08T05:42:04;9.60;;;6.40;;
19940;SDS011;10132;50.864;5.176;2023-07-08T05:44:08;8.15;;;7.03;;
19940;SDS011;10132;50.864;5.176;2023-07-08T05:46:09;9.65;;;6.32;;
19940;SDS011;10132;50.864;5.176;2023-07-08T05:48:11;7.90;;;6.30;;
19940;SDS011;10132;50.864;5.176;2023-07-08T05:50:13;7.25;;;6.03;;
19940;SDS011;10132;50.864;5.176;2023-07-08T05:52:15;10.57;;;5.90;;
19940;SDS011;10132;50.864;5.176;2023-07-08T05:54:17;10.27;;;6.75;;
19940;SDS011;10132;50.864;5.176;2023-07-08T05:56:19;8.02;;;5.90;;
19940;SDS011;10132;50.864;5.176;2023-07-08T05:58:21;9.13;;;6.28;;
19940;SDS011;10132;50.864;5.176;2023-07-08T06:00:24;10.30;;;6.85;;
19940;SDS011;10132;50.864;5.176;2023-07-08T06:02:27;13.77;;;6.78;;
19940;SDS011;10132;50.864;5.176;2023-07-08T06:04:28;15.98;;;7.30;;
19940;SDS011;10132;50.864;5.176;2023-07-08T06:06:31;10.60;;;6.80;;
19940;SDS011;10132;50.864;5.176;2023-07-08T06:08:33;10.77;;;6.75;;
19940;SDS011;10132;50.864;5.176;2023-07-08T06:10:40;10.18;;;6.88;;
19940;SDS011;10132;50.864;5.176;2023-07-08T06:12:43;14.63;;;7.30;;
19940;SDS011;10132;50.864;5.176;2023-07-08T06:14:45;9.90;;;7.15;;
19940;SDS011;10132;50.864;5.176;2023-07-08T06:16:48;10.57;;;6.90;;
19940;SDS011;10132;50.864;5.176;2023-07-08T06:18:50;7.95;;;6.30;;
19940;SDS011;10132;50.864;5.176;2023-07-08T06:20:52;11.75;;;6.57;;
19940;SDS011;10132;50.864;5.176;2023-07-08T06:22:55;10.00;;;6.50;;
19940;SDS011;10132;50.864;5.176;2023-07-08T06:24:57;8.77;;;6.85;;
19940;SDS011;10132;50.864;5.176;2023-07-08T06:26:59;9.82;;;7.03;;
19940;SDS011;10132;50.864;5.176;2023-07-08T06:29:01;12.52;;;6.45;;
19940;SDS011;10132;50.864;5.176;2023-07-08T06:31:03;9.43;;;7.05;;
19940;SDS011;10132;50.864;5.176;2023-07-08T06:33:06;7.70;;;5.97;;
19940;SDS011;10132;50.864;5.176;2023-07-08T06:35:08;11.13;;;6.85;;
19940;SDS011;10132;50.864;5.176;2023-07-08T06:37:10;8.68;;;6.57;;
19940;SDS011;10132;50.864;5.176;2023-07-08T06:39:12;8.43;;;6.05;;
19940;SDS011;10132;50.864;5.176;2023-07-08T06:41:14;10.70;;;6.00;;
19940;SDS011;10132;50.864;5.176;2023-07-08T06:43:16;9.80;;;6.47;;
19940;SDS011;10132;50.864;5.176;2023-07-08T06:45:18;10.10;;;6.53;;
19940;SDS011;10132;50.864;5.176;2023-07-08T06:47:20;8.77;;;6.55;;
19940;SDS011;10132;50.864;5.176;2023-07-08T06:49:24;8.75;;;6.30;;
19940;SDS011;10132;50.864;5.176;2023-07-08T06:51:26;7.72;;;5.85;;
19940;SDS011;10132;50.864;5.176;2023-07-08T06:53:29;8.48;;;5.97;;
19940;SDS011;10132;50.864;5.176;2023-07-08T06:55:31;7.85;;;6.18;;
19940;SDS011;10132;50.864;5.176;2023-07-08T06:57:33;8.07;;;5.63;;
19940;SDS011;10132;50.864;5.176;2023-07-08T06:59:35;8.25;;;5.78;;
19940;SDS011;10132;50.864;5.176;2023-07-08T07:01:37;9.27;;;6.57;;
19940;SDS011;10132;50.864;5.176;2023-07-08T07:03:40;14.10;;;6.50;;
19940;SDS011;10132;50.864;5.176;2023-07-08T07:05:44;9.27;;;6.38;;
19940;SDS011;10132;50.864;5.176;2023-07-08T07:07:46;10.90;;;6.40;;
19940;SDS011;10132;50.864;5.176;2023-07-08T07:09:47;9.73;;;6.40;;
19940;SDS011;10132;50.864;5.176;2023-07-08T07:11:49;8.68;;;6.60;;
19940;SDS011;10132;50.864;5.176;2023-07-08T07:13:51;9.10;;;6.40;;
19940;SDS011;10132;50.864;5.176;2023-07-08T07:15:54;9.55;;;6.30;;
19940;SDS011;10132;50.864;5.176;2023-07-08T07:17:56;8.20;;;6.78;;
19940;SDS011;10132;50.864;5.176;2023-07-08T07:19:58;7.93;;;6.65;;
19940;SDS011;10132;50.864;5.176;2023-07-08T07:22:01;10.00;;;6.47;;
19940;SDS011;10132;50.864;5.176;2023-07-08T07:24:04;8.63;;;6.35;;
19940;SDS011;10132;50.864;5.176;2023-07-08T07:26:07;7.40;;;5.95;;
19940;SDS011;10132;50.864;5.176;2023-07-08T07:28:09;9.60;;;6.30;;
19940;SDS011;10132;50.864;5.176;2023-07-08T07:30:11;9.10;;;6.20;;
19940;SDS011;10132;50.864;5.176;2023-07-08T07:32:15;8.15;;;6.75;;
19940;SDS011;10132;50.864;5.176;2023-07-08T07:34:19;10.30;;;6.93;;
19940;SDS011;10132;50.864;5.176;2023-07-08T07:36:21;7.15;;;6.07;;
19940;SDS011;10132;50.864;5.176;2023-07-08T07:38:24;9.15;;;6.88;;
19940;SDS011;10132;50.864;5.176;2023-07-08T07:40:28;9.02;;;7.07;;
19940;SDS011;10132;50.864;5.176;2023-07-08T07:42:30;9.52;;;7.10;;
19940;SDS011;10132;50.864;5.176;2023-07-08T07:44:32;9.00;;;6.47;;
19940;SDS011;10132;50.864;5.176;2023-07-08T07:46:34;7.78;;;7.05;;
19940;SDS011;10132;50.864;5.176;2023-07-08T07:48:36;9.93;;;7.30;;
19940;SDS011;10132;50.864;5.176;2023-07-08T07:50:38;11.27;;;6.97;;
19940;SDS011;10132;50.864;5.176;2023-07-08T07:52:43;8.57;;;7.38;;
19940;SDS011;10132;50.864;5.176;2023-07-08T07:54:46;9.52;;;7.32;;
19940;SDS011;10132;50.864;5.176;2023-07-08T07:56:48;9.13;;;7.85;;
19940;SDS011;10132;50.864;5.176;2023-07-08T07:58:50;8.85;;;7.35;;
19940;SDS011;10132;50.864;5.176;2023-07-08T08:00:53;10.75;;;7.38;;
19940;SDS011;10132;50.864;5.176;2023-07-08T08:02:55;9.65;;;7.47;;
19940;SDS011;10132;50.864;5.176;2023-07-08T08:04:57;9.45;;;7.60;;
19940;SDS011;10132;50.864;5.176;2023-07-08T08:06:58;9.00;;;7.47;;
19940;SDS011;10132;50.864;5.176;2023-07-08T08:08:59;11.00;;;7.90;;
19940;SDS011;10132;50.864;5.176;2023-07-08T08:11:03;10.25;;;7.85;;
19940;SDS011;10132;50.864;5.176;2023-07-08T08:13:05;9.45;;;7.70;;
19940;SDS011;10132;50.864;5.176;2023-07-08T08:15:08;8.82;;;7.38;;
19940;SDS011;10132;50.864;5.176;2023-07-08T08:17:10;9.85;;;7.10;;
19940;SDS011;10132;50.864;5.176;2023-07-08T08:19:12;9.85;;;7.65;;
19940;SDS011;10132;50.864;5.176;2023-07-08T08:21:14;9.98;;;6.97;;
19940;SDS011;10132;50.864;5.176;2023-07-08T08:23:17;10.70;;;7.35;;
19940;SDS011;10132;50.864;5.176;2023-07-08T08:25:20;8.07;;;7.28;;
19940;SDS011;10132;50.864;5.176;2023-07-08T08:27:23;10.48;;;7.95;;
19940;SDS011;10132;50.864;5.176;2023-07-08T08:29:25;9.68;;;7.60;;
19940;SDS011;10132;50.864;5.176;2023-07-08T08:31:27;11.55;;;7.72;;
19940;SDS011;10132;50.864;5.176;2023-07-08T08:33:31;8.63;;;7.47;;
19940;SDS011;10132;50.864;5.176;2023-07-08T08:35:33;9.10;;;7.28;;
19940;SDS011;10132;50.864;5.176;2023-07-08T08:37:35;9.73;;;7.25;;
19940;SDS011;10132;50.864;5.176;2023-07-08T08:39:36;11.60;;;7.22;;
19940;SDS011;10132;50.864;5.176;2023-07-08T08:41:38;10.45;;;7.82;;
19940;SDS011;10132;50.864;5.176;2023-07-08T08:43:44;11.55;;;7.90;;
19940;SDS011;10132;50.864;5.176;2023-07-08T08:45:50;10.50;;;8.15;;
19940;SDS011;10132;50.864;5.176;2023-07-08T08:47:57;9.27;;;7.70;;
19940;SDS011;10132;50.864;5.176;2023-07-08T08:50:03;11.70;;;7.82;;
19940;SDS011;10132;50.864;5.176;2023-07-08T08:52:19;12.52;;;7.93;;
19940;SDS011;10132;50.864;5.176;2023-07-08T08:54:21;9.95;;;7.72;;
19940;SDS011;10132;50.864;5.176;2023-07-08T08:56:24;11.88;;;8.57;;
19940;SDS011;10132;50.864;5.176;2023-07-08T08:58:31;11.15;;;7.72;;
19940;SDS011;10132;50.864;5.176;2023-07-08T09:00:44;30.67;;;8.90;;
19940;SDS011;10132;50.864;5.176;2023-07-08T09:02:53;11.80;;;7.65;;
19940;SDS011;10132;50.864;5.176;2023-07-08T09:05:02;10.93;;;7.72;;
19940;SDS011;10132;50.864;5.176;2023-07-08T09:07:14;11.57;;;7.78;;
19940;SDS011;10132;50.864;5.176;2023-07-08T09:09:20;9.32;;;8.05;;
19940;SDS011;10132;50.864;5.176;2023-07-08T09:11:36;10.50;;;7.93;;
19940;SDS011;10132;50.864;5.176;2023-07-08T09:13:41;11.02;;;8.15;;
19940;SDS011;10132;50.864;5.176;2023-07-08T09:15:45;10.35;;;7.68;;
19940;SDS011;10132;50.864;5.176;2023-07-08T09:17:48;10.68;;;8.15;;
19940;SDS011;10132;50.864;5.176;2023-07-08T09:19:56;11.10;;;8.05;;
19940;SDS011;10132;50.864;5.176;2023-07-08T09:22:02;11.27;;;7.78;;
19940;SDS011;10132;50.864;5.176;2023-07-08T09:24:16;10.45;;;8.40;;
19940;SDS011;10132;50.864;5.176;2023-07-08T09:26:22;9.07;;;7.85;;
19940;SDS011;10132;50.864;5.176;2023-07-08T09:28:36;13.05;;;8.18;;
19940;SDS011;10132;50.864;5.176;2023-07-08T09:30:39;13.32;;;8.07;;
19940;SDS011;10132;50.864;5.176;2023-07-08T09:32:42;12.27;;;7.95;;
19940;SDS011;10132;50.864;5.176;2023-07-08T09:34:45;10.02;;;8.20;;
19940;SDS011;10132;50.864;5.176;2023-07-08T09:36:51;9.63;;;7.65;;
19940;SDS011;10132;50.864;5.176;2023-07-08T09:38:53;11.60;;;8.23;;
19940;SDS011;10132;50.864;5.176;2023-07-08T09:40:55;11.18;;;8.50;;
19940;SDS011;10132;50.864;5.176;2023-07-08T09:42:58;9.30;;;8.10;;
19940;SDS011;10132;50.864;5.176;2023-07-08T09:45:08;11.27;;;7.82;;
19940;SDS011;10132;50.864;5.176;2023-07-08T09:47:20;14.18;;;8.38;;
19940;SDS011;10132;50.864;5.176;2023-07-08T09:49:28;10.93;;;8.45;;
19940;SDS011;10132;50.864;5.176;2023-07-08T09:51:33;9.65;;;7.57;;
19940;SDS011;10132;50.864;5.176;2023-07-08T09:53:35;10.85;;;8.15;;
19940;SDS011;10132;50.864;5.176;2023-07-08T09:55:37;10.23;;;7.57;;
19940;SDS011;10132;50.864;5.176;2023-07-08T09:57:39;12.90;;;7.85;;
19940;SDS011;10132;50.864;5.176;2023-07-08T09:59:46;9.40;;;7.38;;
19940;SDS011;10132;50.864;5.176;2023-07-08T10:01:49;10.88;;;7.93;;
19940;SDS011;10132;50.864;5.176;2023-07-08T10:03:52;9.90;;;7.80;;
19940;SDS011;10132;50.864;5.176;2023-07-08T10:06:02;11.27;;;8.15;;
19940;SDS011;10132;50.864;5.176;2023-07-08T10:08:15;11.00;;;8.57;;
19940;SDS011;10132;50.864;5.176;2023-07-08T10:10:22;10.15;;;8.07;;
19940;SDS011;10132;50.864;5.176;2023-07-08T10:12:29;13.55;;;7.88;;
19940;SDS011;10132;50.864;5.176;2023-07-08T10:14:34;11.85;;;7.97;;
19940;SDS011;10132;50.864;5.176;2023-07-08T10:16:40;9.68;;;8.15;;
19940;SDS011;10132;50.864;5.176;2023-07-08T10:18:42;10.15;;;8.32;;
19940;SDS011;10132;50.864;5.176;2023-07-08T10:20:47;10.23;;;7.50;;
19940;SDS011;10132;50.864;5.176;2023-07-08T10:23:05;10.15;;;7.97;;
19940;SDS011;10132;50.864;5.176;2023-07-08T10:25:23;11.18;;;8.20;;
19940;SDS011;10132;50.864;5.176;2023-07-08T10:27:32;11.23;;;7.95;;
19940;SDS011;10132;50.864;5.176;2023-07-08T10:29:39;11.38;;;7.95;;
19940;SDS011;10132;50.864;5.176;2023-07-08T10:31:48;12.07;;;8.25;;
19940;SDS011;10132;50.864;5.176;2023-07-08T10:34:01;9.77;;;8.70;;
19940;SDS011;10132;50.864;5.176;2023-07-08T10:36:18;10.07;;;8.25;;
19940;SDS011;10132;50.864;5.176;2023-07-08T10:38:31;9.23;;;7.65;;
19940;SDS011;10132;50.864;5.176;2023-07-08T10:40:44;8.98;;;7.80;;
19940;SDS011;10132;50.864;5.176;2023-07-08T10:42:53;9.88;;;8.00;;
19940;SDS011;10132;50.864;5.176;2023-07-08T10:45:09;12.10;;;8.25;;
19940;SDS011;10132;50.864;5.176;2023-07-08T10:47:17;11.70;;;8.05;;
19940;SDS011;10132;50.864;5.176;2023-07-08T10:49:31;10.00;;;8.70;;
19940;SDS011;10132;50.864;5.176;2023-07-08T10:51:51;11.07;;;8.32;;
19940;SDS011;10132;50.864;5.176;2023-07-08T10:56:31;10.00;;;7.93;;
19940;SDS011;10132;50.864;5.176;2023-07-08T10:58:42;12.18;;;7.93;;
19940;SDS011;10132;50.864;5.176;2023-07-08T11:01:13;10.85;;;7.68;;
19940;SDS011;10132;50.864;5.176;2023-07-08T11:05:52;10.05;;;7.93;;
19940;SDS011;10132;50.864;5.176;2023-07-08T11:08:01;9.52;;;7.82;;
19940;SDS011;10132;50.864;5.176;2023-07-08T11:10:15;8.57;;;7.65;;
19940;SDS011;10132;50.864;5.176;2023-07-08T11:12:21;8.65;;;7.75;;
19940;SDS011;10132;50.864;5.176;2023-07-08T11:14:40;8.30;;;7.28;;
19940;SDS011;10132;50.864;5.176;2023-07-08T11:16:47;10.60;;;7.55;;
19940;SDS011;10132;50.864;5.176;2023-07-08T11:18:56;10.23;;;7.88;;
19940;SDS011;10132;50.864;5.176;2023-07-08T11:21:04;8.32;;;7.30;;
19940;SDS011;10132;50.864;5.176;2023-07-08T11:23:12;8.40;;;7.50;;
19940;SDS011;10132;50.864;5.176;2023-07-08T11:25:24;10.10;;;7.80;;
19940;SDS011;10132;50.864;5.176;2023-07-08T11:27:28;10.90;;;7.90;;
19940;SDS011;10132;50.864;5.176;2023-07-08T11:29:36;11.15;;;8.07;;
19940;SDS011;10132;50.864;5.176;2023-07-08T11:31:41;11.07;;;6.88;;
19940;SDS011;10132;50.864;5.176;2023-07-08T11:33:43;11.07;;;7.60;;
19940;SDS011;10132;50.864;5.176;2023-07-08T11:35:48;11.75;;;7.93;;
19940;SDS011;10132;50.864;5.176;2023-07-08T11:37:52;9.55;;;7.68;;
19940;SDS011;10132;50.864;5.176;2023-07-08T11:39:58;11.07;;;7.70;;
19940;SDS011;10132;50.864;5.176;2023-07-08T11:42:06;10.07;;;7.72;;
19940;SDS011;10132;50.864;5.176;2023-07-08T11:44:17;8.15;;;6.65;;
19940;SDS011;10132;50.864;5.176;2023-07-08T11:46:20;9.30;;;6.93;;
19940;SDS011;10132;50.864;5.176;2023-07-08T11:48:26;10.40;;;7.95;;
19940;SDS011;10132;50.864;5.176;2023-07-08T11:50:31;11.95;;;7.55;;
19940;SDS011;10132;50.864;5.176;2023-07-08T11:52:37;8.90;;;7.30;;
19940;SDS011;10132;50.864;5.176;2023-07-08T11:54:55;7.50;;;6.70;;
19940;SDS011;10132;50.864;5.176;2023-07-08T11:56:59;9.55;;;6.97;;
19940;SDS011;10132;50.864;5.176;2023-07-08T11:59:10;9.50;;;6.80;;
19940;SDS011;10132;50.864;5.176;2023-07-08T12:01:19;7.72;;;6.82;;
19940;SDS011;10132;50.864;5.176;2023-07-08T12:03:29;10.25;;;7.18;;
19940;SDS011;10132;50.864;5.176;2023-07-08T12:05:36;8.23;;;6.80;;
19940;SDS011;10132;50.864;5.176;2023-07-08T12:07:40;8.65;;;6.80;;
19940;SDS011;10132;50.864;5.176;2023-07-08T12:09:46;9.52;;;6.28;;
19940;SDS011;10132;50.864;5.176;2023-07-08T12:11:52;7.63;;;6.03;;
19940;SDS011;10132;50.864;5.176;2023-07-08T12:13:57;10.05;;;6.53;;
19940;SDS011;10132;50.864;5.176;2023-07-08T12:16:02;8.93;;;6.90;;
19940;SDS011;10132;50.864;5.176;2023-07-08T12:18:11;10.43;;;6.45;;
19940;SDS011;10132;50.864;5.176;2023-07-08T12:20:17;9.27;;;7.53;;
19940;SDS011;10132;50.864;5.176;2023-07-08T12:22:24;9.70;;;6.40;;
19940;SDS011;10132;50.864;5.176;2023-07-08T12:24:26;9.23;;;6.38;;
19940;SDS011;10132;50.864;5.176;2023-07-08T12:26:28;8.50;;;6.60;;
19940;SDS011;10132;50.864;5.176;2023-07-08T12:28:30;8.80;;;7.07;;
19940;SDS011;10132;50.864;5.176;2023-07-08T12:30:32;8.05;;;6.28;;
19940;SDS011;10132;50.864;5.176;2023-07-08T12:32:36;8.65;;;6.95;;
19940;SDS011;10132;50.864;5.176;2023-07-08T12:34:38;11.38;;;6.82;;